Time;durP1;ratioP1;P1;durP2;ratioP2;P2;SDS_P1;SDS_P2;PMS_P1;PMS_P2;Temp;Humidity;BMP_temperature;BMP_pressure;BME280_temperature;BME280_humidity;BME280_pressure;Samples;Min_cycle;Max_cycle;Signal;HPM_P1;HPM_P2
2022/08/12 00:42:59;;;;;;;;;;;;;;;;;;5034937;28;19913;-75
2022/08/12 00:45:24;;;;;;;;;;;;;;;;;;5035099;28;20435;-76
2022/08/12 00:47:49;;;;;;;;;;;;;;;;;;5033929;28;19909;-74
2022/08/12 00:50:17;;;;;;;;;;;;;;;;;;5035145;28;19936;-76
2022/08/12 00:52:43;;;;;;;;;;;;;;;;;;5034718;28;19920;-76
2022/08/12 00:55:08;;;;;;;;;;;;;;;;;;5034990;28;19913;-75
2022/08/12 00:57:36;;;;;;;;;;;;;;;;;;5035039;28;19936;-76
2022/08/12 01:00:01;;;;;;;;;;;;;;;;;;5033569;28;19917;-75
2022/08/12 01:02:27;;;;;;;;;;;;;;;;;;5033396;28;20447;-75
2022/08/12 01:13:04;;;;;;;;;;;;;;;;;;5034215;28;19963;-75
2022/08/12 01:15:30;;;;;;;;;;;;;;;;;;5033381;28;19913;-74
2022/08/12 01:17:55;;;;;;;;;;;;;;;;;;5033464;28;20035;-75
2022/08/12 01:20:21;;;;;;;;;;;;;;;;;;5016985;28;20261;-74
2022/08/12 01:22:46;;;;;;;;;;;;;;;;;;5032740;28;19921;-75
2022/08/12 01:25:11;;;;;;;;;;;;;;;;;;5000287;28;19913;-75
2022/08/12 01:27:37;;;;;;;;;;;;;;;;;;5034308;28;19927;-75
2022/08/12 01:30:03;;;;;;;;;;;;;;;;;;5034827;28;19913;-75
2022/08/12 01:32:28;;;;;;;;;;;;;;;;;;5033677;28;20218;-74
2022/08/12 01:34:54;;;;;;;;;;;;;;;;;;5032651;28;19967;-75
2022/08/12 01:37:19;;;;;;;;;;;;;;;;;;5034072;28;20052;-74
2022/08/12 01:39:44;;;;;;;;;;;;;;;;;;5033733;28;19917;-74
2022/08/12 01:42:10;;;;;;;;;;;;;;;;;;5033571;28;20403;-75
2022/08/12 01:44:35;;;;;;;;;;;;;;;;;;5033273;28;19917;-74
2022/08/12 01:47:02;;;;;;;;;;;;;;;;;;5032131;28;20360;-74
2022/08/12 01:49:27;;;;;;;;;;;;;;;;;;5033304;28;19917;-75
2022/08/12 01:51:53;;;;;;;;;;;;;;;;;;5032587;28;19936;-73
2022/08/12 01:54:19;;;;;;;;;;;;;;;;;;5032771;28;19913;-74
2022/08/12 01:56:47;;;;;;;;;;;;;;;;;;5032141;28;20016;-74
2022/08/12 02:01:56;;;;;;;;;;;;;;;;;;5032019;28;19917;-74
2022/08/12 02:12:34;;;;;;;;;;;;;;;;;;5033166;28;19996;-75
2022/08/12 02:14:59;;;;;;;;;;;;;;;;;;5015842;28;19921;-75
2022/08/12 02:17:25;;;;;;;;;;;;;;;;;;5033389;28;19967;-75
2022/08/12 02:19:52;;;;;;;;;;;;;;;;;;5031824;28;19913;-75
2022/08/12 02:22:17;;;;;;;;;;;;;;;;;;5032101;28;19990;-74
2022/08/12 02:24:42;;;;;;;;;;;;;;;;;;5031830;28;20303;-74
2022/08/12 02:27:08;;;;;;;;;;;;;;;;;;5031936;28;19917;-75
2022/08/12 02:29:34;;;;;;;;;;;;;;;;;;5015610;28;19960;-74
2022/08/12 02:31:59;;;;;;;;;;;;;;;;;;5015496;28;19916;-76
2022/08/12 02:34:25;;;;;;;;;;;;;;;;;;5032680;28;20266;-75
2022/08/12 02:36:50;;;;;;;;;;;;;;;;;;5031755;28;19913;-74
2022/08/12 02:39:15;;;;;;;;;;;;;;;;;;5031634;28;19943;-76
2022/08/12 02:41:41;;;;;;;;;;;;;;;;;;5031736;28;19920;-75
2022/08/12 02:44:06;;;;;;;;;;;;;;;;;;5014954;28;19913;-74
2022/08/12 02:46:33;;;;;;;;;;;;;;;;;;5015010;28;19917;-76
2022/08/12 02:48:59;;;;;;;;;;;;;;;;;;5031434;28;20578;-75
2022/08/12 02:51:24;;;;;;;;;;;;;;;;;;5031617;28;19943;-74
2022/08/12 02:53:50;;;;;;;;;;;;;;;;;;5031138;28;19913;-74
2022/08/12 02:56:16;;;;;;;;;;;;;;;;;;5031486;28;19963;-73
2022/08/12 02:58:41;;;;;;;;;;;;;;;;;;5032516;28;20365;-75
2022/08/12 03:01:08;;;;;;;;;;;;;;;;;;5031540;28;19913;-74
2022/08/12 03:03:34;;;;;;;;;;;;;;;;;;5032268;28;20381;-74
2022/08/12 03:05:59;;;;;;;;;;;;;;;;;;5032387;28;20004;-73
2022/08/12 03:08:25;;;;;;;;;;;;;;;;;;5031267;28;19936;-74
2022/08/12 03:10:50;;;;;;;;;;;;;;;;;;5031346;28;19913;-74
2022/08/12 03:13:16;;;;;;;;;;;;;;;;;;5032079;28;19916;-74
2022/08/12 03:15:42;;;;;;;;;;;;;;;;;;5031208;28;19913;-75
2022/08/12 03:18:08;;;;;;;;;;;;;;;;;;5031193;28;19913;-75
2022/08/12 03:20:33;;;;;;;;;;;;;;;;;;5032277;28;19913;-75
2022/08/12 03:22:58;;;;;;;;;;;;;;;;;;5030621;28;19945;-74
2022/08/12 03:25:26;;;;;;;;;;;;;;;;;;5031098;28;20299;-74
2022/08/12 03:27:54;;;;;;;;;;;;;;;;;;5030934;28;20023;-75
2022/08/12 03:30:20;;;;;;;;;;;;;;;;;;5032193;28;19960;-75
2022/08/12 03:32:46;;;;;;;;;;;;;;;;;;5031299;28;19912;-77
2022/08/12 03:35:12;;;;;;;;;;;;;;;;;;5032182;28;20315;-74
2022/08/12 03:37:38;;;;;;;;;;;;;;;;;;5031988;28;19940;-75
2022/08/12 03:40:03;;;;;;;;;;;;;;;;;;5030460;28;20365;-74
2022/08/12 03:42:29;;;;;;;;;;;;;;;;;;5030316;28;19913;-75
2022/08/12 04:01:19;;;;;;;;;;;;;;;;;;5032072;28;19917;-74
2022/08/12 04:03:53;;;;;;;;;;;;;;;;;;5030545;28;19963;-74
2022/08/12 04:06:20;;;;;;;;;;;;;;;;;;5030325;28;20367;-74
2022/08/12 04:08:46;;;;;;;;;;;;;;;;;;5031748;28;19913;-75
2022/08/12 04:13:56;;;;;;;;;;;;;;;;;;5031292;28;19920;-74
2022/08/12 04:16:22;;;;;;;;;;;;;;;;;;5030608;28;19935;-76
2022/08/12 04:18:47;;;;;;;;;;;;;;;;;;5030431;28;20388;-75
2022/08/12 04:21:12;;;;;;;;;;;;;;;;;;5031631;28;20018;-75
2022/08/12 04:23:38;;;;;;;;;;;;;;;;;;5013719;28;19920;-75
2022/08/12 04:26:03;;;;;;;;;;;;;;;;;;5031584;28;19920;-75
2022/08/12 04:28:28;;;;;;;;;;;;;;;;;;5031200;28;20418;-75
2022/08/12 04:30:56;;;;;;;;;;;;;;;;;;5030287;28;20292;-75
2022/08/12 04:33:22;;;;;;;;;;;;;;;;;;5031292;28;19975;-76
2022/08/12 04:35:48;;;;;;;;;;;;;;;;;;5030389;28;20396;-75
2022/08/12 04:38:13;;;;;;;;;;;;;;;;;;5030206;28;19913;-74
2022/08/12 04:40:39;;;;;;;;;;;;;;;;;;5031673;28;20004;-74
2022/08/12 04:43:05;;;;;;;;;;;;;;;;;;5032622;28;20360;-74
2022/08/12 04:45:31;;;;;;;;;;;;;;;;;;5033608;28;19984;-75
2022/08/12 04:47:57;;;;;;;;;;;;;;;;;;5033867;28;19913;-75
2022/08/12 04:50:23;;;;;;;;;;;;;;;;;;5017501;28;20280;-75
2022/08/12 04:52:56;;;;;;;;;;;;;;;;;;5001826;28;19913;-75
2022/08/12 04:55:21;;;;;;;;;;;;;;;;;;5017230;28;20406;-75
2022/08/12 04:58:27;;;;;;;;;;;;;;;;;;5017434;28;20127;-75
2022/08/12 05:00:40;;;;;;;;;;;;;;;;;;5008454;28;19919;-75
2022/08/12 05:03:05;;;;;;;;;;;;;;;;;;5033149;28;19913;-73
2022/08/12 05:05:30;;;;;;;;;;;;;;;;;;5017119;28;19913;-75
2022/08/12 05:07:56;;;;;;;;;;;;;;;;;;5033153;28;19959;-76
2022/08/12 05:10:21;;;;;;;;;;;;;;;;;;5016882;28;19921;-74
2022/08/12 05:12:46;;;;;;;;;;;;;;;;;;5034204;28;19916;-75
2022/08/12 05:15:12;;;;;;;;;;;;;;;;;;5032908;28;20388;-76
2022/08/12 05:17:38;;;;;;;;;;;;;;;;;;5032703;28;19921;-76
2022/08/12 05:20:03;;;;;;;;;;;;;;;;;;5032617;28;19916;-74
2022/08/12 05:22:28;;;;;;;;;;;;;;;;;;5032756;28;19960;-74
2022/08/12 05:24:54;;;;;;;;;;;;;;;;;;5034011;28;20366;-74
2022/08/12 05:27:21;;;;;;;;;;;;;;;;;;5032169;28;20360;-74
2022/08/12 05:29:48;;;;;;;;;;;;;;;;;;5033065;28;19913;-75
2022/08/12 05:32:19;;;;;;;;;;;;;;;;;;5033466;28;20376;-75
2022/08/12 05:34:44;;;;;;;;;;;;;;;;;;5033513;28;19936;-76
2022/08/12 05:37:12;;;;;;;;;;;;;;;;;;5016805;28;19913;-75
2022/08/12 05:39:37;;;;;;;;;;;;;;;;;;5032651;28;19925;-75
2022/08/12 05:42:03;;;;;;;;;;;;;;;;;;5032325;28;19913;-75
2022/08/12 05:44:29;;;;;;;;;;;;;;;;;;5033391;28;19920;-74
2022/08/12 05:46:54;;;;;;;;;;;;;;;;;;5033677;28;19921;-74
2022/08/12 05:49:20;;;;;;;;;;;;;;;;;;5032096;28;19910;-73
2022/08/12 05:51:45;;;;;;;;;;;;;;;;;;5033537;28;20410;-75
2022/08/12 05:54:10;;;;;;;;;;;;;;;;;;5031561;28;19920;-74
2022/08/12 05:56:36;;;;;;;;;;;;;;;;;;5033402;28;19913;-74
2022/08/12 05:59:01;;;;;;;;;;;;;;;;;;5032157;28;19967;-74
2022/08/12 06:01:26;;;;;;;;;;;;;;;;;;5032186;28;19967;-74
2022/08/12 06:03:52;;;;;;;;;;;;;;;;;;5031622;28;20260;-76
2022/08/12 06:06:17;;;;;;;;;;;;;;;;;;5032930;28;20463;-74
2022/08/12 06:08:44;;;;;;;;;;;;;;;;;;5031918;28;19962;-74
2022/08/12 06:11:09;;;;;;;;;;;;;;;;;;5032924;28;20360;-74
2022/08/12 06:13:37;;;;;;;;;;;;;;;;;;5030768;28;20325;-73
2022/08/12 06:16:02;;;;;;;;;;;;;;;;;;5033193;28;19913;-74
2022/08/12 06:18:29;;;;;;;;;;;;;;;;;;5031638;28;20376;-74
2022/08/12 06:20:58;;;;;;;;;;;;;;;;;;5015359;28;19935;-74
2022/08/12 06:23:27;;;;;;;;;;;;;;;;;;5015032;28;19920;-75
2022/08/12 06:25:52;;;;;;;;;;;;;;;;;;5014978;28;19917;-75
2022/08/12 06:28:19;;;;;;;;;;;;;;;;;;5031272;28;19913;-74
2022/08/12 06:30:45;;;;;;;;;;;;;;;;;;5032696;28;19913;-74
2022/08/12 06:33:10;;;;;;;;;;;;;;;;;;5032138;28;19913;-74
2022/08/12 06:35:35;;;;;;;;;;;;;;;;;;5032082;28;20325;-76
2022/08/12 06:38:02;;;;;;;;;;;;;;;;;;5032452;28;20388;-75
2022/08/12 06:43:12;;;;;;;;;;;;;;;;;;5032084;28;19913;-76
2022/08/12 06:45:43;;;;;;;;;;;;;;;;;;5030978;28;19917;-75
2022/08/12 06:48:09;;;;;;;;;;;;;;;;;;5030976;28;20011;-75
2022/08/12 06:50:34;;;;;;;;;;;;;;;;;;5031243;28;19936;-77
2022/08/12 06:53:00;;;;;;;;;;;;;;;;;;5030781;28;20325;-75
2022/08/12 06:55:26;;;;;;;;;;;;;;;;;;5030724;28;19915;-74
2022/08/12 06:57:53;;;;;;;;;;;;;;;;;;5032143;28;19913;-75
2022/08/12 07:00:20;;;;;;;;;;;;;;;;;;5032264;28;19967;-75
2022/08/12 07:02:46;;;;;;;;;;;;;;;;;;5031679;28;20004;-74
2022/08/12 07:05:11;;;;;;;;;;;;;;;;;;5030935;28;19945;-75
2022/08/12 07:07:37;;;;;;;;;;;;;;;;;;5030231;28;19924;-74
2022/08/12 07:10:03;;;;;;;;;;;;;;;;;;5032086;28;19913;-75
2022/08/12 07:12:28;;;;;;;;;;;;;;;;;;5030462;28;19920;-74
2022/08/12 07:14:53;;;;;;;;;;;;;;;;;;5031956;28;20320;-75
2022/08/12 07:17:19;;;;;;;;;;;;;;;;;;5030889;28;20000;-75
2022/08/12 07:19:45;;;;;;;;;;;;;;;;;;5031805;28;20279;-75
2022/08/12 07:22:12;;;;;;;;;;;;;;;;;;5030857;28;19913;-74
2022/08/12 07:24:38;;;;;;;;;;;;;;;;;;5031534;28;19956;-75
2022/08/12 07:27:03;;;;;;;;;;;;;;;;;;5030321;28;19967;-74
2022/08/12 07:29:28;;;;;;;;;;;;;;;;;;5031646;28;20015;-74
2022/08/12 07:31:58;;;;;;;;;;;;;;;;;;5030646;28;20047;-75
2022/08/12 07:34:24;;;;;;;;;;;;;;;;;;5031690;28;20066;-76
2022/08/12 07:36:49;;;;;;;;;;;;;;;;;;5031565;28;20403;-75
2022/08/12 07:39:15;;;;;;;;;;;;;;;;;;5031620;28;20436;-75
2022/08/12 07:41:40;;;;;;;;;;;;;;;;;;5030423;28;19909;-76
2022/08/12 07:44:05;;;;;;;;;;;;;;;;;;5029919;28;19920;-75
2022/08/12 07:46:33;;;;;;;;;;;;;;;;;;5030184;28;19999;-74
2022/08/12 07:48:58;;;;;;;;;;;;;;;;;;5031553;28;19917;-75
2022/08/12 07:51:24;;;;;;;;;;;;;;;;;;5030301;28;20395;-76
2022/08/12 07:53:49;;;;;;;;;;;;;;;;;;5029495;28;20038;-76
2022/08/12 07:56:15;;;;;;;;;;;;;;;;;;5031454;28;19913;-77
2022/08/12 07:58:40;;;;;;;;;;;;;;;;;;5031465;28;19913;-75
2022/08/12 08:01:08;;;;;;;;;;;;;;;;;;5030337;28;19919;-76
2022/08/12 08:03:33;;;;;;;;;;;;;;;;;;5031273;28;19913;-76
2022/08/12 08:05:59;;;;;;;;;;;;;;;;;;5030316;28;19917;-76
2022/08/12 08:08:24;;;;;;;;;;;;;;;;;;5030103;28;19913;-76
2022/08/12 08:10:49;;;;;;;;;;;;;;;;;;5031562;28;19913;-76
2022/08/12 08:13:15;;;;;;;;;;;;;;;;;;5029604;28;19920;-75
2022/08/12 08:15:41;;;;;;;;;;;;;;;;;;4997019;28;20009;-76
2022/08/12 08:18:06;;;;;;;;;;;;;;;;;;5033108;28;19913;-76
2022/08/12 08:20:32;;;;;;;;;;;;;;;;;;5035363;28;20341;-76
2022/08/12 08:22:57;;;;;;;;;;;;;;;;;;5016961;28;19953;-76
2022/08/12 08:25:29;;;;;;;;;;;;;;;;;;5033724;28;20434;-76
2022/08/12 08:27:55;;;;;;;;;;;;;;;;;;5034563;28;19936;-76
2022/08/12 08:30:20;;;;;;;;;;;;;;;;;;5033569;28;19917;-76
2022/08/12 08:32:45;;;;;;;;;;;;;;;;;;5000335;28;20392;-77
2022/08/12 08:35:21;;;;;;;;;;;;;;;;;;5034723;28;19917;-75
2022/08/12 08:37:46;;;;;;;;;;;;;;;;;;5033474;28;19913;-76
2022/08/12 08:42:56;;;;;;;;;;;;;;;;;;5033308;28;19913;-76
2022/08/12 08:45:21;;;;;;;;;;;;;;;;;;5033451;28;20342;-77
2022/08/12 08:47:47;;;;;;;;;;;;;;;;;;5033203;28;19939;-76
2022/08/12 08:50:15;;;;;;;;;;;;;;;;;;5034630;28;20449;-75
2022/08/12 08:52:41;;;;;;;;;;;;;;;;;;5032153;28;19999;-77
2022/08/12 08:55:06;;;;;;;;;;;;;;;;;;5033074;28;20018;-76
2022/08/12 08:57:31;;;;;;;;;;;;;;;;;;5034606;28;19921;-76
2022/08/12 08:59:59;;;;;;;;;;;;;;;;;;5033061;28;19924;-76
2022/08/12 09:02:24;;;;;;;;;;;;;;;;;;5033027;28;20031;-77
2022/08/12 09:04:49;;;;;;;;;;;;;;;;;;5033963;28;19940;-77
2022/08/12 09:07:17;;;;;;;;;;;;;;;;;;5032479;28;19971;-76
2022/08/12 09:09:42;;;;;;;;;;;;;;;;;;5034041;28;20363;-77
2022/08/12 09:14:53;;;;;;;;;;;;;;;;;;5033712;28;19960;-76
2022/08/12 09:17:19;;;;;;;;;;;;;;;;;;5032777;28;19917;-77
2022/08/12 09:19:44;;;;;;;;;;;;;;;;;;5033992;28;19913;-77
2022/08/12 09:22:09;;;;;;;;;;;;;;;;;;5034134;28;20009;-76
2022/08/12 09:24:35;;;;;;;;;;;;;;;;;;5033777;28;19909;-77
2022/08/12 09:27:00;;;;;;;;;;;;;;;;;;5034008;28;19920;-76
2022/08/12 09:29:28;;;;;;;;;;;;;;;;;;5033322;28;19913;-76
2022/08/12 09:31:54;;;;;;;;;;;;;;;;;;5033939;28;19921;-76
2022/08/12 09:34:19;;;;;;;;;;;;;;;;;;5033715;28;19966;-75
2022/08/12 09:36:45;;;;;;;;;;;;;;;;;;5033603;28;19917;-77
2022/08/12 09:39:12;;;;;;;;;;;;;;;;;;5060173;23;19932;-77
2022/08/12 09:41:37;;;;;;;;;;;;;;;;;;5093753;28;19919;-76
2022/08/12 09:46:47;;;;;;;;;;;;;;;;;;5093444;28;19920;-76
2022/08/12 09:49:13;;;;;;;;;;;;;;;;;;5093581;28;19915;-77
2022/08/12 09:51:40;;;;;;;;;;;;;;;;;;5075550;28;19912;-77
2022/08/12 09:54:10;;;;;;;;;;;;;;;;;;5075365;28;19912;-77
2022/08/12 09:56:35;;;;;;;;;;;;;;;;;;5075452;28;19912;-76
2022/08/12 09:59:01;;;;;;;;;;;;;;;;;;5075451;28;19985;-75
2022/08/12 10:01:27;;;;;;;;;;;;;;;;;;5093558;28;19916;-77
2022/08/12 10:03:53;;;;;;;;;;;;;;;;;;5093248;28;20282;-77
2022/08/12 10:06:18;;;;;;;;;;;;;;;;;;5075283;28;19924;-77
2022/08/12 10:08:44;;;;;;;;;;;;;;;;;;5075418;28;19963;-76
2022/08/12 10:13:54;;;;;;;;;;;;;;;;;;5092862;28;19919;-76
2022/08/12 10:16:20;;;;;;;;;;;;;;;;;;5075247;28;20019;-77
2022/08/12 10:18:47;;;;;;;;;;;;;;;;;;5093559;28;19967;-76
2022/08/12 10:21:12;;;;;;;;;;;;;;;;;;5075236;28;19916;-76
2022/08/12 10:23:38;;;;;;;;;;;;;;;;;;5057967;28;19994;-77
2022/08/12 10:31:37;;;;;;;;;;;;;;;;;;5076309;28;20272;-76
2022/08/12 10:34:04;;;;;;;;;;;;;;;;;;5059391;28;20389;-77
2022/08/12 10:36:30;;;;;;;;;;;;;;;;;;5076047;28;20002;-78
2022/08/12 10:38:56;;;;;;;;;;;;;;;;;;5076030;28;20355;-77
2022/08/12 10:44:11;;;;;;;;;;;;;;;;;;5094458;28;19955;-77
2022/08/12 10:46:36;;;;;;;;;;;;;;;;;;5098820;28;20084;-77
2022/08/12 10:49:01;;;;;;;;;;;;;;;;;;5101486;28;20338;-76
2022/08/12 10:51:30;;;;;;;;;;;;;;;;;;5083065;28;19912;-76
2022/08/12 10:53:55;;;;;;;;;;;;;;;;;;5079907;28;19920;-75
2022/08/12 10:56:21;;;;;;;;;;;;;;;;;;5079313;28;20304;-75
2022/08/12 10:58:54;;;;;;;;;;;;;;;;;;5045437;28;19919;-75
2022/08/12 11:01:20;;;;;;;;;;;;;;;;;;5062540;28;19947;-77
2022/08/12 11:03:45;;;;;;;;;;;;;;;;;;5061565;28;19908;-77
2022/08/12 11:06:11;;;;;;;;;;;;;;;;;;5078862;28;19916;-77
2022/08/12 11:08:37;;;;;;;;;;;;;;;;;;5043345;28;19957;-77
2022/08/12 11:11:04;;;;;;;;;;;;;;;;;;5075564;28;19912;-76
2022/08/12 11:13:29;;;;;;;;;;;;;;;;;;5074193;28;20206;-75
2022/08/12 11:15:54;;;;;;;;;;;;;;;;;;5074918;28;20409;-76
2022/08/12 11:18:21;;;;;;;;;;;;;;;;;;5057673;28;20279;-77
2022/08/12 11:20:47;;;;;;;;;;;;;;;;;;5092697;28;19953;-76
2022/08/12 11:23:12;;;;;;;;;;;;;;;;;;5057510;28;19912;-77
2022/08/12 11:25:38;;;;;;;;;;;;;;;;;;5074659;28;20324;-76
2022/08/12 11:28:03;;;;;;;;;;;;;;;;;;5074198;28;20387;-77
2022/08/12 11:30:29;;;;;;;;;;;;;;;;;;5040434;28;19913;-76
2022/08/12 11:32:54;;;;;;;;;;;;;;;;;;5039982;28;19970;-78
2022/08/12 11:35:20;;;;;;;;;;;;;;;;;;5073313;28;19967;-76
2022/08/12 11:37:45;;;;;;;;;;;;;;;;;;5073595;28;20364;-76
2022/08/12 11:40:11;;;;;;;;;;;;;;;;;;5091256;28;19956;-76
2022/08/12 11:42:36;;;;;;;;;;;;;;;;;;5056670;28;20332;-76
2022/08/12 11:45:02;;;;;;;;;;;;;;;;;;5056863;28;20254;-75
2022/08/12 11:47:27;;;;;;;;;;;;;;;;;;5056474;28;19928;-74
2022/08/12 11:49:53;;;;;;;;;;;;;;;;;;5091373;28;19912;-78
2022/08/12 11:52:19;;;;;;;;;;;;;;;;;;5092531;28;19916;-75
2022/08/12 11:54:44;;;;;;;;;;;;;;;;;;5060351;28;19917;-76
2022/08/12 11:57:10;;;;;;;;;;;;;;;;;;5044028;28;20053;-76
2022/08/12 11:59:35;;;;;;;;;;;;;;;;;;5060611;28;19912;-75
2022/08/12 12:02:01;;;;;;;;;;;;;;;;;;5095188;28;20343;-75
2022/08/12 12:04:26;;;;;;;;;;;;;;;;;;5076773;28;19914;-75
2022/08/12 12:06:52;;;;;;;;;;;;;;;;;;5077118;28;20302;-75
2022/08/12 12:09:18;;;;;;;;;;;;;;;;;;5060480;28;19916;-75
2022/08/12 12:11:46;;;;;;;;;;;;;;;;;;5077075;28;19912;-75
2022/08/12 12:14:11;;;;;;;;;;;;;;;;;;5094889;28;20314;-77
2022/08/12 12:16:37;;;;;;;;;;;;;;;;;;5095184;28;20432;-76
2022/08/12 12:19:04;;;;;;;;;;;;;;;;;;5076852;28;19918;-76
2022/08/12 12:21:29;;;;;;;;;;;;;;;;;;5076870;28;19988;-77
2022/08/12 12:23:55;;;;;;;;;;;;;;;;;;5076865;28;19919;-76
2022/08/12 12:26:20;;;;;;;;;;;;;;;;;;5077000;28;19923;-77
2022/08/12 12:28:46;;;;;;;;;;;;;;;;;;5076915;28;19912;-75
2022/08/12 12:31:11;;;;;;;;;;;;;;;;;;5076700;28;19908;-75
2022/08/12 12:33:37;;;;;;;;;;;;;;;;;;5094126;28;19920;-74
2022/08/12 12:36:03;;;;;;;;;;;;;;;;;;5059907;28;19912;-75
2022/08/12 12:38:28;;;;;;;;;;;;;;;;;;5094866;28;19923;-75
2022/08/12 12:40:54;;;;;;;;;;;;;;;;;;5076712;28;19916;-76
2022/08/12 12:43:19;;;;;;;;;;;;;;;;;;5076112;28;19930;-75
2022/08/12 12:45:45;;;;;;;;;;;;;;;;;;5094695;28;19919;-75
2022/08/12 12:48:11;;;;;;;;;;;;;;;;;;5076072;28;20012;-77
2022/08/12 12:50:36;;;;;;;;;;;;;;;;;;5076597;28;20268;-77
2022/08/12 12:53:01;;;;;;;;;;;;;;;;;;5075864;28;19912;-77
2022/08/12 12:55:27;;;;;;;;;;;;;;;;;;5076430;28;19912;-75
2022/08/12 12:57:52;;;;;;;;;;;;;;;;;;5076394;28;20329;-75
2022/08/12 13:00:18;;;;;;;;;;;;;;;;;;5076931;28;19916;-76
2022/08/12 13:02:44;;;;;;;;;;;;;;;;;;5095513;28;19912;-76
2022/08/12 13:05:10;;;;;;;;;;;;;;;;;;5097155;28;19912;-78
2022/08/12 13:07:35;;;;;;;;;;;;;;;;;;5046675;28;19923;-75
2022/08/12 13:10:01;;;;;;;;;;;;;;;;;;5098611;28;19912;-76
2022/08/12 13:12:26;;;;;;;;;;;;;;;;;;5080740;28;19916;-75
2022/08/12 13:14:52;;;;;;;;;;;;;;;;;;5082992;28;19912;-76
2022/08/12 13:17:20;;;;;;;;;;;;;;;;;;5083089;28;19999;-77
2022/08/12 13:19:45;;;;;;;;;;;;;;;;;;5102547;28;19963;-76
2022/08/12 13:22:17;;;;;;;;;;;;;;;;;;5049481;28;19952;-76
2022/08/12 13:24:42;;;;;;;;;;;;;;;;;;5046142;28;19916;-74
2022/08/12 13:27:08;;;;;;;;;;;;;;;;;;5093462;28;20024;-75
2022/08/12 13:29:35;;;;;;;;;;;;;;;;;;5075250;28;20044;-76
2022/08/12 13:32:01;;;;;;;;;;;;;;;;;;5058728;28;19912;-75
2022/08/12 13:34:26;;;;;;;;;;;;;;;;;;5074953;28;19972;-76
2022/08/12 13:36:52;;;;;;;;;;;;;;;;;;5093488;28;19943;-76
2022/08/12 13:39:20;;;;;;;;;;;;;;;;;;5058276;28;19925;-76
2022/08/12 13:41:45;;;;;;;;;;;;;;;;;;5074845;28;19999;-76
2022/08/12 13:44:11;;;;;;;;;;;;;;;;;;5092960;28;19997;-76
2022/08/12 13:46:39;;;;;;;;;;;;;;;;;;5093023;28;20188;-77
2022/08/12 13:49:06;;;;;;;;;;;;;;;;;;5075137;28;19911;-74
2022/08/12 13:51:31;;;;;;;;;;;;;;;;;;5075039;28;19912;-76
2022/08/12 13:53:57;;;;;;;;;;;;;;;;;;5093091;28;19912;-75
2022/08/12 13:56:25;;;;;;;;;;;;;;;;;;5058387;28;19983;-76
2022/08/12 13:58:51;;;;;;;;;;;;;;;;;;5093008;28;20393;-76
2022/08/12 14:01:16;;;;;;;;;;;;;;;;;;5074645;28;19912;-75
2022/08/12 14:03:42;;;;;;;;;;;;;;;;;;5092298;28;19980;-74
2022/08/12 14:06:07;;;;;;;;;;;;;;;;;;5074847;28;19950;-75
2022/08/12 14:08:33;;;;;;;;;;;;;;;;;;5092737;28;20425;-76
2022/08/12 14:10:58;;;;;;;;;;;;;;;;;;5057880;28;20057;-77
2022/08/12 14:13:25;;;;;;;;;;;;;;;;;;5041157;28;19942;-76
2022/08/12 14:15:52;;;;;;;;;;;;;;;;;;5092276;28;19945;-75
2022/08/12 14:18:17;;;;;;;;;;;;;;;;;;5092825;28;19912;-77
2022/08/12 14:20:43;;;;;;;;;;;;;;;;;;5074496;28;20333;-78
2022/08/12 14:23:08;;;;;;;;;;;;;;;;;;5092353;28;19916;-76
2022/08/12 14:25:34;;;;;;;;;;;;;;;;;;5074421;28;20211;-76
2022/08/12 14:27:59;;;;;;;;;;;;;;;;;;5074347;28;20363;-76
2022/08/12 14:30:26;;;;;;;;;;;;;;;;;;5092383;28;20291;-76
2022/08/12 14:32:51;;;;;;;;;;;;;;;;;;5057594;28;19916;-75
2022/08/12 14:35:18;;;;;;;;;;;;;;;;;;5074322;28;20272;-75
2022/08/12 14:37:48;;;;;;;;;;;;;;;;;;5057387;28;20410;-74
2022/08/12 14:40:14;;;;;;;;;;;;;;;;;;5073968;28;19923;-74
2022/08/12 14:42:40;;;;;;;;;;;;;;;;;;5091803;28;19912;-76
2022/08/12 14:45:05;;;;;;;;;;;;;;;;;;5073550;28;20358;-76
2022/08/12 14:47:31;;;;;;;;;;;;;;;;;;5092021;28;19943;-75
2022/08/12 14:49:56;;;;;;;;;;;;;;;;;;5092107;28;19997;-75
2022/08/12 14:52:23;;;;;;;;;;;;;;;;;;5092014;28;20355;-73
2022/08/12 14:54:48;;;;;;;;;;;;;;;;;;5073656;28;19916;-76
2022/08/12 14:57:14;;;;;;;;;;;;;;;;;;5092134;28;19920;-77
2022/08/12 15:02:24;;;;;;;;;;;;;;;;;;5073541;28;19912;-76
2022/08/12 15:04:57;;;;;;;;;;;;;;;;;;5056888;28;19961;-77
2022/08/12 15:07:25;;;;;;;;;;;;;;;;;;5040462;28;20375;-74
2022/08/12 15:09:51;;;;;;;;;;;;;;;;;;5092059;28;19919;-75
2022/08/12 15:12:18;;;;;;;;;;;;;;;;;;5057099;28;19912;-75
2022/08/12 15:14:43;;;;;;;;;;;;;;;;;;5091676;28;19912;-74
2022/08/12 15:17:09;;;;;;;;;;;;;;;;;;5092163;28;20267;-75
2022/08/12 15:19:34;;;;;;;;;;;;;;;;;;5074024;28;20007;-76
2022/08/12 15:22:00;;;;;;;;;;;;;;;;;;5073847;28;20305;-77
2022/08/12 15:24:25;;;;;;;;;;;;;;;;;;5091866;28;19908;-75
2022/08/12 15:26:51;;;;;;;;;;;;;;;;;;5091673;28;20271;-75
2022/08/12 15:29:16;;;;;;;;;;;;;;;;;;5073764;28;20356;-76
2022/08/12 15:31:43;;;;;;;;;;;;;;;;;;5073642;28;20028;-75
2022/08/12 15:34:09;;;;;;;;;;;;;;;;;;5091532;28;19939;-75
2022/08/12 15:36:35;;;;;;;;;;;;;;;;;;5057085;28;19955;-76
2022/08/12 15:41:33;;;;;;;;;;;;;;;;;;5008799;28;20075;-77
2022/08/12 15:43:58;;;;;;;;;;;;;;;;;;4994016;28;20395;-76
2022/08/12 15:46:31;;;;;;;;;;;;;;;;;;4977940;28;19924;-77
2022/08/12 15:48:56;;;;;;;;;;;;;;;;;;4977946;28;20032;-77
2022/08/12 15:51:22;;;;;;;;;;;;;;;;;;5011541;28;19984;-76
2022/08/12 15:54:06;;;;;;;;;;;;;;;;;;4993620;28;19910;-77
2022/08/12 15:56:32;;;;;;;;;;;;;;;;;;4994281;28;19967;-77
2022/08/12 15:58:58;;;;;;;;;;;;;;;;;;4994056;28;20000;-77
2022/08/12 16:01:23;;;;;;;;;;;;;;;;;;5011929;28;19920;-77
2022/08/12 16:03:50;;;;;;;;;;;;;;;;;;4993797;28;19937;-76
2022/08/12 16:06:16;;;;;;;;;;;;;;;;;;4994029;28;19976;-77
2022/08/12 16:08:42;;;;;;;;;;;;;;;;;;4994050;28;19938;-77
2022/08/12 16:11:08;;;;;;;;;;;;;;;;;;5011477;28;19960;-77
2022/08/12 16:13:34;;;;;;;;;;;;;;;;;;4993381;28;19918;-77
2022/08/12 16:16:02;;;;;;;;;;;;;;;;;;5011600;28;19914;-76
2022/08/12 16:18:27;;;;;;;;;;;;;;;;;;4993892;28;19914;-77
2022/08/12 16:20:52;;;;;;;;;;;;;;;;;;4977603;28;19914;-76
2022/08/12 16:23:18;;;;;;;;;;;;;;;;;;5011280;28;19956;-77
2022/08/12 16:25:48;;;;;;;;;;;;;;;;;;4994258;28;20328;-78
2022/08/12 16:28:13;;;;;;;;;;;;;;;;;;4993855;28;19964;-77
2022/08/12 16:30:39;;;;;;;;;;;;;;;;;;4993926;28;19932;-77
2022/08/12 16:33:08;;;;;;;;;;;;;;;;;;5011018;28;19909;-77
2022/08/12 16:35:33;;;;;;;;;;;;;;;;;;4977572;28;19914;-77
2022/08/12 16:38:03;;;;;;;;;;;;;;;;;;5011317;28;20297;-77
2022/08/12 16:40:28;;;;;;;;;;;;;;;;;;4997020;28;19925;-76
2022/08/12 16:42:54;;;;;;;;;;;;;;;;;;4996849;28;19913;-78
2022/08/12 16:45:23;;;;;;;;;;;;;;;;;;4997181;28;19995;-76
2022/08/12 16:47:49;;;;;;;;;;;;;;;;;;4980735;28;19939;-78
2022/08/12 16:50:14;;;;;;;;;;;;;;;;;;4997035;28;20377;-77
2022/08/12 16:52:40;;;;;;;;;;;;;;;;;;4980588;28;19954;-76
2022/08/12 16:55:08;;;;;;;;;;;;;;;;;;5014420;28;20324;-76
2022/08/12 16:57:35;;;;;;;;;;;;;;;;;;5014751;28;19913;-77
2022/08/12 17:00:01;;;;;;;;;;;;;;;;;;4980824;28;19945;-77
2022/08/12 17:02:29;;;;;;;;;;;;;;;;;;5013980;28;19929;-78
2022/08/12 17:04:55;;;;;;;;;;;;;;;;;;4980829;28;19914;-77
2022/08/12 17:07:21;;;;;;;;;;;;;;;;;;4996960;28;19918;-76
2022/08/12 17:09:48;;;;;;;;;;;;;;;;;;4997101;28;19917;-77
2022/08/12 17:12:13;;;;;;;;;;;;;;;;;;5014387;28;20384;-77
2022/08/12 17:14:39;;;;;;;;;;;;;;;;;;4996543;28;19959;-77
2022/08/12 17:17:05;;;;;;;;;;;;;;;;;;4996801;28;19913;-77
2022/08/12 17:19:30;;;;;;;;;;;;;;;;;;4997159;28;19914;-76
2022/08/12 17:21:56;;;;;;;;;;;;;;;;;;4980849;28;19944;-78
2022/08/12 17:24:22;;;;;;;;;;;;;;;;;;4996401;28;19917;-77
2022/08/12 17:26:47;;;;;;;;;;;;;;;;;;4997487;28;20410;-76
2022/08/12 17:29:13;;;;;;;;;;;;;;;;;;4997239;28;19971;-76
2022/08/12 17:31:38;;;;;;;;;;;;;;;;;;4997089;28;20270;-76
2022/08/12 17:34:04;;;;;;;;;;;;;;;;;;5013888;28;19914;-77
2022/08/12 17:36:30;;;;;;;;;;;;;;;;;;4980349;28;19913;-77
2022/08/12 17:38:55;;;;;;;;;;;;;;;;;;4996512;28;19925;-77
2022/08/12 17:41:21;;;;;;;;;;;;;;;;;;4996356;28;19972;-76
2022/08/12 17:43:51;;;;;;;;;;;;;;;;;;5013645;28;19968;-77
2022/08/12 17:46:17;;;;;;;;;;;;;;;;;;4980274;28;20373;-76
2022/08/12 17:48:43;;;;;;;;;;;;;;;;;;5014060;28;19914;-77
2022/08/12 17:51:11;;;;;;;;;;;;;;;;;;4995569;28;19963;-77
2022/08/12 17:53:37;;;;;;;;;;;;;;;;;;4996167;28;19917;-78
2022/08/12 17:56:02;;;;;;;;;;;;;;;;;;4996298;28;19956;-76
2022/08/12 17:58:31;;;;;;;;;;;;;;;;;;4996591;28;19913;-75
2022/08/12 18:00:56;;;;;;;;;;;;;;;;;;5013667;28;19939;-77
2022/08/12 18:03:22;;;;;;;;;;;;;;;;;;5013287;28;19918;-76
2022/08/12 18:05:47;;;;;;;;;;;;;;;;;;4996118;28;19913;-77
2022/08/12 18:08:14;;;;;;;;;;;;;;;;;;4980071;28;20304;-77
2022/08/12 18:13:28;;;;;;;;;;;;;;;;;;5013159;28;19921;-75
2022/08/12 18:15:53;;;;;;;;;;;;;;;;;;4979627;28;19914;-75
2022/08/12 18:18:19;;;;;;;;;;;;;;;;;;4996145;28;19914;-76
2022/08/12 18:20:45;;;;;;;;;;;;;;;;;;4996022;28;20173;-75
2022/08/12 18:23:11;;;;;;;;;;;;;;;;;;5013124;28;19909;-76
2022/08/12 18:28:20;;;;;;;;;;;;;;;;;;4995729;28;19972;-76
2022/08/12 18:30:46;;;;;;;;;;;;;;;;;;5013378;28;19917;-77